Time;durP1;ratioP1;P1;durP2;ratioP2;P2;SDS_P1;SDS_P2;PMS_P1;PMS_P2;Temp;Humidity;BMP_temperature;BMP_pressure;BME280_temperature;BME280_humidity;BME280_pressure;Samples;Min_cycle;Max_cycle;Signal;HPM_P1;HPM_P2
2023/05/26 00:01:46;;;;;;;22.55;4.97;;;7.80;99.90;;;;;;5092713;28;20121;-33
2023/05/26 00:04:18;;;;;;;18.33;5.32;;;7.80;99.90;;;;;;5091719;28;20067;-33
2023/05/26 00:06:46;;;;;;;19.73;5.50;;;7.80;99.90;;;;;;5093010;28;20491;-33
2023/05/26 00:09:12;;;;;;;19.40;4.90;;;7.70;99.90;;;;;;5083900;28;20032;-32
2023/05/26 00:11:38;;;;;;;24.42;5.57;;;7.70;99.90;;;;;;5092606;28;20032;-33
2023/05/26 00:14:04;;;;;;;14.00;4.18;;;7.70;99.90;;;;;;5092146;28;20051;-34
2023/05/26 00:16:30;;;;;;;17.60;4.63;;;7.70;99.90;;;;;;5091870;28;20032;-33
2023/05/26 00:18:56;;;;;;;17.83;4.70;;;7.60;99.90;;;;;;5092195;28;20043;-33
2023/05/26 00:21:21;;;;;;;24.52;6.03;;;7.60;99.90;;;;;;5092235;28;20527;-33
2023/05/26 00:23:47;;;;;;;18.80;4.75;;;7.60;99.90;;;;;;5092386;28;20055;-32
2023/05/26 00:26:13;;;;;;;19.52;5.85;;;7.50;99.90;;;;;;5092579;28;20562;-33
2023/05/26 00:28:39;;;;;;;19.73;5.78;;;7.50;99.90;;;;;;5092626;28;20071;-32
2023/05/26 00:31:05;;;;;;;19.45;4.97;;;7.50;99.90;;;;;;5092279;28;20036;-32
2023/05/26 00:33:31;;;;;;;14.07;5.20;;;7.40;99.90;;;;;;5091772;28;20047;-33
2023/05/26 00:35:56;;;;;;;18.02;5.55;;;7.40;99.90;;;;;;5092485;28;20397;-33
2023/05/26 00:38:22;;;;;;;20.85;5.10;;;7.40;99.90;;;;;;5091296;28;20040;-35
2023/05/26 00:40:49;;;;;;;20.77;5.22;;;7.40;99.90;;;;;;5092398;28;20048;-33
2023/05/26 00:43:15;;;;;;;19.25;4.53;;;7.30;99.90;;;;;;5091524;28;20093;-33
2023/05/26 00:45:40;;;;;;;16.65;4.38;;;7.30;99.90;;;;;;5086732;28;20036;-33
2023/05/26 00:48:06;;;;;;;22.77;5.65;;;7.30;99.90;;;;;;5089435;28;20036;-33
2023/05/26 00:50:33;;;;;;;23.38;6.20;;;7.20;99.90;;;;;;5086919;28;20028;-33
2023/05/26 00:53:00;;;;;;;18.52;4.97;;;7.20;99.90;;;;;;5091923;28;20043;-34
2023/05/26 00:55:28;;;;;;;16.42;4.53;;;7.20;99.90;;;;;;5085476;28;20028;-33
2023/05/26 00:57:55;;;;;;;14.80;4.43;;;7.10;99.90;;;;;;5091267;28;20040;-33
2023/05/26 01:00:22;;;;;;;16.75;5.18;;;7.10;99.90;;;;;;5092449;28;20043;-33
2023/05/26 01:02:50;;;;;;;21.58;5.05;;;7.10;99.90;;;;;;5091340;28;20071;-33
2023/05/26 01:05:16;;;;;;;18.50;4.82;;;7.10;99.90;;;;;;5088707;28;20423;-33
2023/05/26 01:07:42;;;;;;;16.98;4.97;;;7.00;99.90;;;;;;5091909;28;20182;-33
2023/05/26 01:10:09;;;;;;;16.85;4.72;;;7.00;99.90;;;;;;5085991;28;20506;-33
2023/05/26 01:12:40;;;;;;;20.33;4.63;;;7.00;99.90;;;;;;5087856;28;20028;-33
2023/05/26 01:15:08;;;;;;;16.95;5.40;;;6.90;99.90;;;;;;5088676;28;20172;-33
2023/05/26 01:18:24;;;;;;;17.80;5.13;;;6.90;99.90;;;;;;5087366;28;20032;-33
2023/05/26 01:20:57;;;;;;;21.67;5.22;;;6.90;99.90;;;;;;5089939;28;20543;-32
2023/05/26 01:23:56;;;;;;;12.77;5.03;;;6.90;99.90;;;;;;5090791;28;20047;-33
2023/05/26 01:26:30;;;;;;;18.75;4.88;;;6.80;99.90;;;;;;5090981;28;20397;-32
2023/05/26 01:29:01;;;;;;;19.48;5.45;;;6.80;99.90;;;;;;5074898;28;20408;-33
2023/05/26 01:31:27;;;;;;;17.52;4.53;;;6.80;99.90;;;;;;5074343;28;20089;-33
2023/05/26 01:33:53;;;;;;;19.35;5.18;;;6.70;99.90;;;;;;5092140;28;20075;-32
2023/05/26 01:36:20;;;;;;;19.25;4.90;;;6.70;99.90;;;;;;5090746;28;20076;-32
2023/05/26 01:38:46;;;;;;;15.73;4.97;;;6.60;99.90;;;;;;5090990;28;20050;-33
2023/05/26 01:41:50;;;;;;;21.85;5.72;;;6.60;99.90;;;;;;5090516;28;20229;-33
2023/05/26 01:44:31;;;;;;;21.10;5.35;;;6.60;99.90;;;;;;5089428;28;20493;-32
2023/05/26 01:46:57;;;;;;;14.10;4.82;;;6.60;99.90;;;;;;5076689;28;20048;-33
2023/05/26 01:49:30;;;;;;;17.92;4.75;;;6.50;99.90;;;;;;5089695;28;20036;-33
2023/05/26 01:52:09;;;;;;;15.45;4.57;;;6.50;99.90;;;;;;5081239;28;20043;-33
2023/05/26 01:54:47;;;;;;;18.80;5.50;;;6.50;99.90;;;;;;5079811;28;20419;-33
2023/05/26 01:57:14;;;;;;;17.65;5.85;;;6.40;99.90;;;;;;5088929;28;20043;-35
2023/05/26 01:59:40;;;;;;;15.48;4.80;;;6.40;99.90;;;;;;5085348;28;20033;-33
2023/05/26 02:02:05;;;;;;;12.77;5.10;;;6.40;99.90;;;;;;5067351;28;20043;-33
2023/05/26 02:04:31;;;;;;;20.23;5.78;;;6.40;99.90;;;;;;5090523;28;20031;-33
2023/05/26 02:06:57;;;;;;;21.13;5.13;;;6.40;99.90;;;;;;5089319;28;20085;-33
2023/05/26 02:09:23;;;;;;;19.20;5.43;;;6.30;99.90;;;;;;5088254;28;20511;-33
2023/05/26 02:11:49;;;;;;;17.60;4.72;;;6.30;99.90;;;;;;5089732;28;20031;-36
2023/05/26 02:14:15;;;;;;;11.55;4.28;;;6.30;99.90;;;;;;5090425;28;20067;-32
2023/05/26 02:16:41;;;;;;;17.08;4.75;;;6.20;99.90;;;;;;5087637;28;20143;-34
2023/05/26 02:19:07;;;;;;;16.80;5.03;;;6.20;99.90;;;;;;5090136;28;20535;-32
2023/05/26 02:21:33;;;;;;;15.82;5.28;;;6.20;99.90;;;;;;5080001;28;20040;-35
2023/05/26 02:23:59;;;;;;;16.23;4.55;;;6.20;99.90;;;;;;5090035;28;20047;-37
2023/05/26 02:26:25;;;;;;;19.45;4.90;;;6.10;99.90;;;;;;5090425;28;20124;-34
2023/05/26 02:28:51;;;;;;;16.85;5.43;;;6.10;99.90;;;;;;5086734;28;20174;-34
2023/05/26 02:31:16;;;;;;;16.45;5.05;;;6.00;99.90;;;;;;5086443;28;20043;-33
2023/05/26 02:33:42;;;;;;;15.80;4.63;;;6.00;99.90;;;;;;5088618;28;20040;-34
2023/05/26 02:36:08;;;;;;;14.05;5.20;;;6.00;99.90;;;;;;5084181;28;20134;-34
2023/05/26 02:38:34;;;;;;;19.58;4.53;;;5.90;99.90;;;;;;5087799;28;20051;-35
2023/05/26 02:41:00;;;;;;;15.35;5.05;;;5.90;99.90;;;;;;5087248;28;20043;-33
2023/05/26 02:43:25;;;;;;;19.75;6.03;;;5.90;99.90;;;;;;5086358;28;20490;-35
2023/05/26 02:45:51;;;;;;;18.40;5.05;;;5.90;99.90;;;;;;5081823;28;20127;-35
2023/05/26 02:48:17;;;;;;;14.00;4.70;;;5.80;99.90;;;;;;5089843;28;20032;-33
2023/05/26 02:50:43;;;;;;;14.40;4.50;;;5.80;99.90;;;;;;5090058;28;20055;-36
2023/05/26 02:53:08;;;;;;;14.25;5.60;;;5.70;99.90;;;;;;5085947;28;20404;-34
2023/05/26 02:55:34;;;;;;;17.25;4.05;;;5.70;99.90;;;;;;5082306;28;20043;-36
2023/05/26 02:58:01;;;;;;;18.08;4.82;;;5.70;99.90;;;;;;5090059;28;20036;-34
2023/05/26 03:00:27;;;;;;;15.98;4.70;;;5.70;99.90;;;;;;5089304;28;20105;-34
2023/05/26 03:02:52;;;;;;;15.75;5.65;;;5.60;99.90;;;;;;5089813;28;20074;-35
2023/05/26 03:05:18;;;;;;;21.48;5.32;;;5.60;99.90;;;;;;5088923;28;20050;-32
2023/05/26 03:07:44;;;;;;;18.35;5.18;;;5.60;99.90;;;;;;5090206;28;20044;-34
2023/05/26 03:10:10;;;;;;;21.50;5.47;;;5.60;99.90;;;;;;5089390;28;20028;-33
2023/05/26 03:12:36;;;;;;;13.25;5.07;;;5.60;99.90;;;;;;5088139;28;20059;-32
2023/05/26 03:15:03;;;;;;;20.17;5.18;;;5.50;99.90;;;;;;5089550;28;20507;-36
2023/05/26 03:17:29;;;;;;;19.75;5.53;;;5.50;99.90;;;;;;5088740;28;20047;-33
2023/05/26 03:19:56;;;;;;;16.58;4.82;;;5.50;99.90;;;;;;5087722;28;20128;-34
2023/05/26 03:22:22;;;;;;;18.33;4.60;;;5.50;99.90;;;;;;5088549;28;20039;-34
2023/05/26 03:24:48;;;;;;;15.07;5.22;;;5.50;99.90;;;;;;5089863;28;20036;-33
2023/05/26 03:27:15;;;;;;;13.40;5.97;;;5.50;99.90;;;;;;5085391;28;20036;-34
2023/05/26 03:29:40;;;;;;;16.48;5.07;;;5.50;99.90;;;;;;5089673;28;20036;-33
2023/05/26 03:32:06;;;;;;;19.10;5.97;;;5.40;99.90;;;;;;5086288;28;20034;-34
2023/05/26 03:34:33;;;;;;;14.93;4.97;;;5.40;99.90;;;;;;5083678;28;20050;-35
2023/05/26 03:36:58;;;;;;;14.57;4.90;;;5.40;99.90;;;;;;5089136;28;20085;-34
2023/05/26 03:39:24;;;;;;;14.27;4.95;;;5.40;99.90;;;;;;5084085;28;20432;-34
2023/05/26 03:41:50;;;;;;;15.55;5.88;;;5.40;99.90;;;;;;5083891;28;20488;-34
2023/05/26 03:44:21;;;;;;;20.35;5.57;;;5.40;99.90;;;;;;5088914;28;20028;-35
2023/05/26 03:46:46;;;;;;;15.48;4.60;;;5.40;99.90;;;;;;5087001;28;20093;-34
2023/05/26 03:49:12;;;;;;;23.45;5.53;;;5.30;99.90;;;;;;5087696;28;20408;-34
2023/05/26 03:51:38;;;;;;;15.95;4.90;;;5.40;99.90;;;;;;5083610;28;20071;-35
2023/05/26 03:54:04;;;;;;;18.85;5.22;;;5.40;99.90;;;;;;5085531;28;20094;-34
2023/05/26 03:56:30;;;;;;;16.40;5.30;;;5.40;99.90;;;;;;5081972;28;20043;-33
2023/05/26 03:58:56;;;;;;;14.20;5.25;;;5.40;99.90;;;;;;5088981;28;20122;-34
2023/05/26 04:01:22;;;;;;;18.80;5.75;;;5.40;99.90;;;;;;5086800;28;20039;-32
2023/05/26 04:03:48;;;;;;;15.57;6.03;;;5.40;99.90;;;;;;5083290;28;20027;-35
2023/05/26 04:06:14;;;;;;;23.52;5.40;;;5.50;99.90;;;;;;5089412;28;20120;-32
2023/05/26 04:08:39;;;;;;;18.25;5.40;;;5.50;99.90;;;;;;5088517;28;20032;-34
2023/05/26 04:11:05;;;;;;;19.63;6.03;;;5.50;99.90;;;;;;5092597;28;20089;-34
2023/05/26 04:13:36;;;;;;;17.75;5.45;;;5.50;99.90;;;;;;5092819;28;20036;-34
2023/05/26 04:16:02;;;;;;;20.67;5.35;;;5.50;99.90;;;;;;5086690;28;20069;-33
2023/05/26 04:18:28;;;;;;;22.63;6.10;;;5.50;99.90;;;;;;5092754;28;20067;-34
2023/05/26 04:20:53;;;;;;;16.65;4.72;;;5.60;99.90;;;;;;5092507;28;20044;-35
2023/05/26 04:23:19;;;;;;;21.17;5.35;;;5.60;99.90;;;;;;5089297;28;20097;-34
2023/05/26 04:25:45;;;;;;;18.05;5.13;;;5.60;99.90;;;;;;5090282;28;20051;-34
2023/05/26 04:28:11;;;;;;;16.30;5.25;;;5.70;99.90;;;;;;5088131;28;20040;-32
2023/05/26 04:30:39;;;;;;;17.42;4.93;;;5.70;99.90;;;;;;5092186;28;20520;-32
2023/05/26 04:33:09;;;;;;;16.30;5.53;;;5.80;99.90;;;;;;5083146;28;20032;-32
2023/05/26 04:35:35;;;;;;;20.52;5.32;;;5.80;99.90;;;;;;5090608;28;20040;-33
2023/05/26 04:38:04;;;;;;;27.05;6.43;;;5.90;99.90;;;;;;5071266;28;20044;-32
2023/05/26 04:40:34;;;;;;;18.33;6.78;;;5.90;99.90;;;;;;5089775;28;20497;-34
2023/05/26 04:43:00;;;;;;;20.30;5.88;;;6.00;99.90;;;;;;5087909;28;20032;-35
2023/05/26 04:45:27;;;;;;;16.17;4.95;;;6.00;99.90;;;;;;5081037;28;20089;-34
2023/05/26 04:47:56;;;;;;;21.70;6.05;;;6.10;99.90;;;;;;5082266;28;20523;-34
2023/05/26 04:50:23;;;;;;;24.33;6.03;;;6.20;99.90;;;;;;5089029;28;20392;-34
2023/05/26 04:52:49;;;;;;;16.00;5.30;;;6.20;99.90;;;;;;5086097;28;20450;-35
2023/05/26 04:55:15;;;;;;;20.42;5.78;;;6.30;99.90;;;;;;5089165;28;20067;-34
2023/05/26 04:57:43;;;;;;;19.45;5.82;;;6.40;99.90;;;;;;5088473;28;20036;-32
2023/05/26 05:00:16;;;;;;;24.38;6.00;;;6.40;99.90;;;;;;5064978;28;20047;-36
2023/05/26 05:02:42;;;;;;;21.10;6.23;;;6.50;99.90;;;;;;5089353;28;20031;-35
2023/05/26 05:05:08;;;;;;;20.10;5.60;;;6.60;99.90;;;;;;5089950;28;20040;-35
2023/05/26 05:07:38;;;;;;;20.70;5.70;;;6.70;99.90;;;;;;5089158;28;20042;-35
2023/05/26 05:10:09;;;;;;;20.33;5.70;;;6.80;99.90;;;;;;5071207;28;20040;-34
2023/05/26 05:12:35;;;;;;;16.58;5.72;;;6.80;99.90;;;;;;5086445;28;20065;-35
2023/05/26 05:15:02;;;;;;;26.05;5.60;;;6.90;99.90;;;;;;5086746;28;20101;-36
2023/05/26 05:17:28;;;;;;;19.55;5.38;;;7.00;99.90;;;;;;5085727;28;20067;-34
2023/05/26 05:19:54;;;;;;;21.13;5.53;;;7.10;99.90;;;;;;5084326;28;20089;-34
2023/05/26 05:22:23;;;;;;;24.92;5.85;;;7.20;99.90;;;;;;5079571;28;20033;-36
2023/05/26 05:24:50;;;;;;;19.65;5.25;;;7.30;99.90;;;;;;5081757;28;20428;-37
2023/05/26 05:27:15;;;;;;;26.70;6.35;;;7.40;99.90;;;;;;5086960;28;20044;-36
2023/05/26 05:29:41;;;;;;;22.23;5.95;;;7.50;99.90;;;;;;5088017;28;20047;-36
2023/05/26 05:32:07;;;;;;;24.15;6.15;;;7.60;99.90;;;;;;5089296;28;20423;-37
2023/05/26 05:34:33;;;;;;;22.25;5.68;;;7.70;99.90;;;;;;5088735;28;20040;-34
2023/05/26 05:36:58;;;;;;;16.65;5.13;;;7.80;99.90;;;;;;5085842;28;20047;-40
2023/05/26 05:39:24;;;;;;;22.50;6.07;;;7.90;99.90;;;;;;5087522;28;20523;-37
2023/05/26 05:41:50;;;;;;;17.77;5.88;;;8.00;99.90;;;;;;5078932;28;20424;-35
2023/05/26 05:44:16;;;;;;;24.63;7.38;;;8.20;99.90;;;;;;5088163;28;20497;-35
2023/05/26 05:46:41;;;;;;;22.80;6.40;;;8.30;99.90;;;;;;5089173;28;20083;-35
2023/05/26 05:49:07;;;;;;;19.95;5.78;;;8.40;99.90;;;;;;5090741;28;20035;-37
2023/05/26 05:51:33;;;;;;;18.00;5.30;;;8.50;99.90;;;;;;5088541;28;20123;-37
2023/05/26 05:53:59;;;;;;;22.27;6.28;;;8.60;99.90;;;;;;5086185;28;20084;-34
2023/05/26 05:56:24;;;;;;;19.77;5.80;;;8.70;99.90;;;;;;5087772;28;20043;-35
2023/05/26 05:58:50;;;;;;;23.30;6.13;;;8.90;99.90;;;;;;5069433;28;20409;-34
2023/05/26 06:01:16;;;;;;;23.90;5.38;;;9.10;99.90;;;;;;5089710;28;20032;-37
2023/05/26 06:03:41;;;;;;;20.67;5.32;;;9.20;99.90;;;;;;5087595;28;20450;-36
2023/05/26 06:06:07;;;;;;;25.48;5.88;;;9.30;99.90;;;;;;5084452;28;20040;-39
2023/05/26 06:08:33;;;;;;;19.83;6.15;;;9.50;99.90;;;;;;5082940;28;20741;-37
2023/05/26 06:10:59;;;;;;;19.75;5.07;;;9.60;99.90;;;;;;5067183;28;20508;-34
2023/05/26 06:13:24;;;;;;;20.60;5.30;;;9.80;99.90;;;;;;5086943;28;20060;-34
2023/05/26 06:15:50;;;;;;;18.48;5.10;;;9.90;99.90;;;;;;5085693;28;20044;-35
2023/05/26 06:18:17;;;;;;;27.65;6.45;;;10.10;99.90;;;;;;5088771;28;20032;-35
2023/05/26 06:20:43;;;;;;;23.17;5.75;;;10.20;99.90;;;;;;5086077;28;20055;-36
2023/05/26 06:23:09;;;;;;;21.92;5.18;;;10.30;99.90;;;;;;5084769;28;20031;-35
2023/05/26 06:25:34;;;;;;;22.90;5.22;;;10.50;99.90;;;;;;5088164;28;20054;-38
2023/05/26 06:28:00;;;;;;;21.27;6.10;;;10.50;99.90;;;;;;5083172;28;20052;-37
2023/05/26 06:30:26;;;;;;;22.98;5.10;;;10.60;99.90;;;;;;5079089;28;20058;-38
2023/05/26 06:32:51;;;;;;;19.23;5.38;;;10.70;99.90;;;;;;5088422;28;20036;-36
2023/05/26 06:35:18;;;;;;;17.05;5.68;;;10.80;99.90;;;;;;5087983;28;20097;-37
2023/05/26 06:37:44;;;;;;;19.17;5.57;;;10.90;99.90;;;;;;5087215;28;20428;-35
2023/05/26 06:40:10;;;;;;;23.23;6.05;;;10.90;99.90;;;;;;5089246;28;20298;-35
2023/05/26 06:42:36;;;;;;;25.85;5.53;;;11.00;99.90;;;;;;5084607;28;20124;-34
2023/05/26 06:45:02;;;;;;;20.77;5.10;;;11.10;99.90;;;;;;5090155;28;20513;-36
2023/05/26 06:47:28;;;;;;;24.17;5.50;;;11.30;99.90;;;;;;5082158;28;20097;-34
2023/05/26 06:49:53;;;;;;;22.88;5.53;;;11.40;99.90;;;;;;5087456;28;20036;-35
2023/05/26 06:52:19;;;;;;;19.08;5.18;;;11.60;99.90;;;;;;5085696;28;20043;-36
2023/05/26 06:54:45;;;;;;;21.27;5.13;;;11.80;99.90;;;;;;5088486;28;20044;-35
2023/05/26 06:57:11;;;;;;;18.05;5.03;;;12.00;99.90;;;;;;5091116;28;20035;-36
2023/05/26 06:59:37;;;;;;;19.90;4.63;;;12.20;99.90;;;;;;5090274;28;20389;-36
2023/05/26 07:02:03;;;;;;;17.95;4.88;;;12.40;99.90;;;;;;5082869;28;20071;-37
2023/05/26 07:04:29;;;;;;;20.20;5.15;;;12.60;99.90;;;;;;5078964;28;20523;-38
2023/05/26 07:06:55;;;;;;;18.85;4.57;;;12.80;99.90;;;;;;5088795;28;20048;-38
2023/05/26 07:09:21;;;;;;;18.35;5.30;;;13.00;99.90;;;;;;5088713;28;20463;-34
2023/05/26 07:11:46;;;;;;;23.20;6.07;;;13.10;99.90;;;;;;5090047;28;20032;-35
2023/05/26 07:14:12;;;;;;;22.55;5.45;;;13.10;99.90;;;;;;5088319;28;20412;-35
2023/05/26 07:16:38;;;;;;;18.27;4.95;;;13.10;99.90;;;;;;5089356;28;20581;-35
2023/05/26 07:19:04;;;;;;;17.02;5.05;;;13.20;99.90;;;;;;5082197;28;20040;-35
2023/05/26 07:21:31;;;;;;;15.10;4.43;;;13.20;99.90;;;;;;5084665;28;20110;-35
2023/05/26 07:23:57;;;;;;;20.52;5.10;;;13.40;99.90;;;;;;5088861;28;20028;-36
2023/05/26 07:26:22;;;;;;;18.58;4.90;;;13.30;99.90;;;;;;5081980;28;20044;-36
2023/05/26 07:28:50;;;;;;;16.35;4.68;;;13.20;99.90;;;;;;5090100;28;20438;-35
2023/05/26 07:31:17;;;;;;;16.42;4.60;;;13.20;99.90;;;;;;5090866;28;20413;-36
2023/05/26 07:33:47;;;;;;;17.00;5.30;;;13.10;99.90;;;;;;5090651;28;20051;-34
2023/05/26 07:36:13;;;;;;;18.17;4.68;;;13.00;99.90;;;;;;5090871;28;20489;-35
2023/05/26 07:38:39;;;;;;;16.35;4.63;;;13.00;99.90;;;;;;5089999;28;20051;-35
2023/05/26 07:41:05;;;;;;;10.05;4.18;;;13.10;99.90;;;;;;5076644;28;20040;-34
2023/05/26 07:43:31;;;;;;;12.73;4.03;;;13.30;99.90;;;;;;5081567;28;20047;-34
2023/05/26 07:45:58;;;;;;;13.43;4.18;;;13.50;99.90;;;;;;5094976;28;20044;-34
2023/05/26 07:48:25;;;;;;;12.95;4.45;;;13.60;99.90;;;;;;5104223;28;20079;-32
2023/05/26 07:50:51;;;;;;;15.00;4.32;;;13.70;99.90;;;;;;5094364;28;20036;-34
2023/05/26 07:53:17;;;;;;;20.83;4.93;;;13.70;99.90;;;;;;5094496;28;20111;-37
2023/05/26 07:55:43;;;;;;;16.17;4.40;;;13.70;99.90;;;;;;5094301;28;20048;-35
2023/05/26 07:58:11;;;;;;;16.35;4.97;;;13.70;99.90;;;;;;5094095;28;20488;-34
2023/05/26 08:00:37;;;;;;;15.45;5.07;;;13.80;99.90;;;;;;5094096;28;20039;-37
2023/05/26 08:03:03;;;;;;;16.08;4.53;;;13.90;99.90;;;;;;5065989;28;20072;-35
2023/05/26 08:05:30;;;;;;;13.80;4.43;;;13.90;99.90;;;;;;5094164;28;20460;-34
2023/05/26 08:07:56;;;;;;;18.27;4.57;;;14.20;99.90;;;;;;5093869;28;20063;-35
2023/05/26 08:10:23;;;;;;;13.98;4.15;;;14.50;99.90;;;;;;5094088;28;20036;-36
2023/05/26 08:12:50;;;;;;;14.73;4.30;;;14.80;99.90;;;;;;5094119;28;20493;-34
2023/05/26 08:15:17;;;;;;;12.68;4.35;;;15.00;99.90;;;;;;5093936;28;20512;-35
2023/05/26 08:17:43;;;;;;;13.32;4.05;;;15.10;99.90;;;;;;5073864;28;20044;-36
2023/05/26 08:20:10;;;;;;;17.05;4.50;;;15.30;99.90;;;;;;5091474;28;20527;-33
2023/05/26 08:22:36;;;;;;;12.25;3.85;;;15.60;99.90;;;;;;5094033;28;20431;-37
2023/05/26 08:25:03;;;;;;;13.82;3.90;;;15.60;99.90;;;;;;5093910;28;20389;-34
2023/05/26 08:27:28;;;;;;;14.52;3.92;;;15.70;99.90;;;;;;5093609;28;20050;-37
2023/05/26 08:29:54;;;;;;;13.48;4.03;;;15.90;99.90;;;;;;5093528;28;20114;-35
2023/05/26 08:32:20;;;;;;;11.95;4.18;;;16.00;99.90;;;;;;5092089;28;20036;-35
2023/05/26 08:34:46;;;;;;;17.40;4.20;;;16.10;99.90;;;;;;5093411;28;20051;-35
2023/05/26 08:37:13;;;;;;;13.95;4.40;;;16.10;99.90;;;;;;5093487;28;20035;-33
2023/05/26 08:39:40;;;;;;;14.57;4.45;;;16.10;99.90;;;;;;5093126;28;20040;-35
2023/05/26 08:42:12;;;;;;;13.48;4.35;;;16.10;99.90;;;;;;5093465;28;20427;-37
2023/05/26 08:44:38;;;;;;;9.85;3.45;;;16.20;99.90;;;;;;5094408;28;20040;-34
2023/05/26 08:47:05;;;;;;;14.13;4.13;;;16.40;99.90;;;;;;5093422;28;20431;-36
2023/05/26 08:49:38;;;;;;;15.02;4.35;;;16.80;99.90;;;;;;5093480;28;20111;-35
2023/05/26 08:52:14;;;;;;;10.93;4.03;;;17.00;99.90;;;;;;5080758;28;20032;-38
2023/05/26 08:54:44;;;;;;;11.15;3.60;;;17.40;99.90;;;;;;5092576;28;20044;-33
2023/05/26 08:57:12;;;;;;;14.88;4.15;;;17.70;99.90;;;;;;5093214;28;20028;-34
2023/05/26 08:59:39;;;;;;;12.80;4.25;;;18.00;99.90;;;;;;5085063;28;20038;-33
2023/05/26 09:02:06;;;;;;;13.23;4.38;;;18.00;99.90;;;;;;5092750;28;20036;-34
2023/05/26 09:04:32;;;;;;;14.23;4.05;;;17.70;99.90;;;;;;5092854;28;20485;-35
2023/05/26 09:06:58;;;;;;;14.20;4.22;;;17.60;99.90;;;;;;5092827;28;20476;-37
2023/05/26 09:09:24;;;;;;;14.65;4.20;;;17.50;99.70;;;;;;5092873;28;20560;-39
2023/05/26 09:11:51;;;;;;;14.75;3.97;;;17.70;99.90;;;;;;5092626;28;20047;-35
2023/05/26 09:14:20;;;;;;;12.45;3.95;;;18.00;99.90;;;;;;5092962;28;20043;-37
2023/05/26 09:16:46;;;;;;;11.85;3.38;;;18.40;99.90;;;;;;5092513;28;20048;-37
2023/05/26 09:19:14;;;;;;;19.42;4.20;;;18.60;99.90;;;;;;5092727;28;20044;-36
2023/05/26 09:21:46;;;;;;;12.00;4.20;;;18.80;99.20;;;;;;5092723;28;20129;-36
2023/05/26 09:24:18;;;;;;;14.52;3.65;;;19.00;93.00;;;;;;5092259;28;20043;-35
2023/05/26 09:26:45;;;;;;;12.32;4.18;;;19.00;91.80;;;;;;5092279;28;20119;-35
2023/05/26 09:29:12;;;;;;;12.55;4.13;;;19.30;92.40;;;;;;5089795;28;20035;-33
2023/05/26 09:31:46;;;;;;;11.75;3.83;;;19.50;91.70;;;;;;5088650;28;20036;-35
2023/05/26 09:34:13;;;;;;;11.55;3.53;;;19.50;90.10;;;;;;5092443;28;20040;-36
2023/05/26 09:36:39;;;;;;;12.15;3.60;;;19.40;88.10;;;;;;5090718;28;20686;-36
2023/05/26 09:39:12;;;;;;;14.45;3.72;;;19.50;85.50;;;;;;5077272;28;20036;-33
2023/05/26 09:41:43;;;;;;;9.20;3.47;;;19.50;78.40;;;;;;5092057;28;20073;-37
2023/05/26 09:44:10;;;;;;;11.57;3.97;;;19.50;79.10;;;;;;5092164;28;20303;-34
2023/05/26 09:46:37;;;;;;;10.80;3.65;;;19.80;79.80;;;;;;5092009;28;20039;-38
2023/05/26 09:49:12;;;;;;;9.38;3.30;;;20.00;76.40;;;;;;5092026;28;20044;-37
2023/05/26 09:51:40;;;;;;;9.63;3.60;;;20.10;69.20;;;;;;5071974;28;20481;-37
2023/05/26 09:54:08;;;;;;;8.75;3.08;;;20.00;69.40;;;;;;5088291;28;20521;-37
2023/05/26 09:56:36;;;;;;;12.02;4.15;;;19.80;67.00;;;;;;5091968;28;20036;-37
2023/05/26 09:59:05;;;;;;;11.02;4.32;;;19.80;66.20;;;;;;5091935;28;20507;-35
2023/05/26 10:01:39;;;;;;;10.90;3.50;;;20.20;65.10;;;;;;5091700;28;20122;-37
2023/05/26 10:04:07;;;;;;;10.65;3.47;;;20.40;63.80;;;;;;5091411;28;20040;-38
2023/05/26 10:06:38;;;;;;;11.27;3.40;;;20.50;63.30;;;;;;5091443;28;20075;-36
2023/05/26 10:09:07;;;;;;;10.35;3.22;;;20.80;61.80;;;;;;5092866;28;20071;-36
2023/05/26 10:11:39;;;;;;;8.48;3.42;;;20.70;59.50;;;;;;5091742;28;20456;-35
2023/05/26 10:14:05;;;;;;;9.07;3.53;;;20.80;60.00;;;;;;5091321;28;20043;-35
2023/05/26 10:16:32;;;;;;;11.00;3.08;;;20.90;59.50;;;;;;5091372;28;20134;-39
2023/05/26 10:18:59;;;;;;;13.30;3.67;;;20.80;58.60;;;;;;5092804;28;20435;-34
2023/05/26 10:21:47;;;;;;;11.32;3.22;;;21.00;58.50;;;;;;5091201;28;20036;-37
2023/05/26 10:24:15;;;;;;;9.50;3.42;;;21.00;54.60;;;;;;5091361;28;20040;-35
2023/05/26 10:26:53;;;;;;;8.00;2.92;;;21.00;57.40;;;;;;5091563;28;20059;-34
2023/05/26 10:29:27;;;;;;;7.78;3.10;;;21.40;55.90;;;;;;5091817;28;20148;-35
2023/05/26 10:31:53;;;;;;;8.85;2.92;;;21.50;56.60;;;;;;5091147;28;20028;-36
2023/05/26 10:34:48;;;;;;;8.95;3.08;;;21.60;56.40;;;;;;5091352;28;20047;-36
2023/05/26 10:37:15;;;;;;;8.80;3.20;;;22.00;53.20;;;;;;5079134;28;20044;-36
2023/05/26 10:39:42;;;;;;;9.65;3.08;;;22.00;55.40;;;;;;5090718;28;20075;-36
2023/05/26 10:42:19;;;;;;;9.13;2.97;;;21.90;54.50;;;;;;5082460;28;20051;-35
2023/05/26 10:44:47;;;;;;;9.57;3.42;;;22.10;52.20;;;;;;5089033;28;20040;-36
2023/05/26 10:47:17;;;;;;;10.30;3.17;;;22.30;53.10;;;;;;5089243;28;20119;-37
2023/05/26 10:49:54;;;;;;;8.77;3.10;;;22.40;51.70;;;;;;5089139;28;20401;-35
2023/05/26 10:52:20;;;;;;;7.28;3.47;;;22.60;50.70;;;;;;5089195;28;20461;-36
2023/05/26 10:54:47;;;;;;;9.18;3.40;;;22.70;51.80;;;;;;5089017;28;20043;-36
2023/05/26 10:57:34;;;;;;;9.20;3.35;;;22.60;50.80;;;;;;5089090;28;20040;-34
2023/05/26 11:00:26;;;;;;;8.30;3.22;;;22.50;49.20;;;;;;5090516;28;20032;-39
2023/05/26 11:02:52;;;;;;;10.25;3.40;;;22.50;49.20;;;;;;5090817;28;20080;-38
2023/05/26 11:05:31;;;;;;;7.82;2.92;;;22.40;50.20;;;;;;5090480;28;20059;-37
2023/05/26 11:07:57;;;;;;;9.65;3.70;;;22.60;49.40;;;;;;5090631;28;20043;-33
2023/05/26 11:10:23;;;;;;;11.30;3.58;;;22.50;50.10;;;;;;5091845;28;20093;-36
2023/05/26 11:12:54;;;;;;;8.80;3.47;;;22.80;50.20;;;;;;5081157;28;20032;-36
2023/05/26 11:15:33;;;;;;;13.32;3.65;;;23.30;51.00;;;;;;5090395;28;20044;-37
2023/05/26 11:18:09;;;;;;;10.13;3.63;;;23.50;49.00;;;;;;5093356;28;20082;-36
2023/05/26 11:20:35;;;;;;;9.10;3.63;;;23.50;48.30;;;;;;5094996;28;20423;-39
2023/05/26 11:23:03;;;;;;;11.07;3.50;;;23.50;48.20;;;;;;5094564;28;20044;-38
2023/05/26 11:25:29;;;;;;;9.90;3.83;;;23.40;48.10;;;;;;5094279;28;20040;-37
2023/05/26 11:27:55;;;;;;;9.40;3.78;;;23.40;48.50;;;;;;5094740;28;20422;-35
2023/05/26 11:30:21;;;;;;;8.43;3.40;;;23.70;48.70;;;;;;5082445;28;20065;-36
2023/05/26 11:32:51;;;;;;;9.15;3.40;;;23.90;48.30;;;;;;5116088;28;20112;-37
2023/05/26 11:35:25;;;;;;;7.95;3.35;;;23.80;47.10;;;;;;5098342;28;20151;-35
2023/05/26 11:37:51;;;;;;;9.52;3.50;;;23.80;46.00;;;;;;5094581;28;20079;-36
2023/05/26 11:40:17;;;;;;;9.05;3.72;;;23.80;47.80;;;;;;5094425;28;20036;-36
2023/05/26 11:42:45;;;;;;;9.57;3.42;;;23.60;47.00;;;;;;5094740;28;20386;-36
2023/05/26 11:45:10;;;;;;;7.22;3.20;;;23.50;47.40;;;;;;5094791;28;20427;-35
2023/05/26 11:47:36;;;;;;;9.00;3.83;;;23.70;48.30;;;;;;5094518;28;20032;-35
2023/05/26 11:50:12;;;;;;;9.05;3.50;;;23.50;47.30;;;;;;5094794;28;20153;-34
2023/05/26 11:52:44;;;;;;;9.57;3.47;;;23.80;46.40;;;;;;5094629;28;20051;-37
2023/05/26 11:55:11;;;;;;;11.00;3.47;;;24.00;46.60;;;;;;5095497;28;20504;-37
2023/05/26 11:57:37;;;;;;;10.18;3.75;;;24.10;46.20;;;;;;5092785;28;20046;-35
2023/05/26 12:00:09;;;;;;;9.93;4.13;;;24.10;46.20;;;;;;5085884;28;20085;-37
2023/05/26 12:02:38;;;;;;;8.40;3.72;;;24.20;45.80;;;;;;5077176;28;20039;-38
2023/05/26 12:05:25;;;;;;;7.00;3.50;;;24.00;45.50;;;;;;5094252;28;20036;-38
2023/05/26 12:08:06;;;;;;;10.38;3.28;;;24.10;45.80;;;;;;5086942;28;20087;-36
2023/05/26 12:10:32;;;;;;;8.95;3.90;;;24.50;44.50;;;;;;5088160;28;20055;-35
2023/05/26 12:12:58;;;;;;;8.85;3.50;;;24.60;44.10;;;;;;5091411;28;20047;-40
2023/05/26 12:15:24;;;;;;;10.55;3.47;;;24.70;44.20;;;;;;5091721;28;20126;-38
2023/05/26 12:17:51;;;;;;;10.82;3.70;;;24.40;45.20;;;;;;5091591;28;20463;-36
2023/05/26 12:20:18;;;;;;;10.88;3.83;;;24.70;46.20;;;;;;5091368;28;20119;-36
2023/05/26 12:22:44;;;;;;;9.23;3.53;;;24.80;45.70;;;;;;5086620;28;20032;-40
2023/05/26 12:25:10;;;;;;;10.50;3.83;;;24.90;45.10;;;;;;5093214;28;20051;-37
2023/05/26 12:27:39;;;;;;;7.40;3.42;;;25.20;44.40;;;;;;5093477;28;20373;-37
2023/05/26 12:30:19;;;;;;;15.77;3.75;;;25.30;44.70;;;;;;5061074;28;20071;-38
2023/05/26 12:32:45;;;;;;;7.63;3.15;;;25.40;44.00;;;;;;5093068;28;20032;-39
2023/05/26 12:35:12;;;;;;;10.60;3.30;;;25.70;43.90;;;;;;5093483;28;20044;-36
2023/05/26 12:37:38;;;;;;;9.77;3.65;;;25.90;44.20;;;;;;5078939;28;20036;-37
2023/05/26 12:40:06;;;;;;;7.80;3.35;;;25.80;44.10;;;;;;5074200;28;20062;-36
2023/05/26 12:42:32;;;;;;;10.60;4.07;;;25.90;43.80;;;;;;5090593;28;20503;-35
2023/05/26 12:44:58;;;;;;;7.45;4.15;;;25.80;43.40;;;;;;5083313;28;20431;-38
2023/05/26 12:47:24;;;;;;;10.73;3.90;;;25.80;43.70;;;;;;5093021;28;20039;-37